sensor_id;sensor_type;location;lat;lon;timestamp;temperature;humidity
3406;DHT22;10008;48.682;9.016;2022-09-12T00:01:13;13.30;99.90
3406;DHT22;10008;48.682;9.016;2022-09-12T00:03:39;13.30;99.90
3406;DHT22;10008;48.682;9.016;2022-09-12T00:06:18;13.40;99.90
3406;DHT22;10008;48.682;9.016;2022-09-12T00:08:44;13.40;99.90
3406;DHT22;10008;48.682;9.016;2022-09-12T00:11:11;13.30;99.90
3406;DHT22;10008;48.682;9.016;2022-09-12T00:13:38;13.40;99.90
3406;DHT22;10008;48.682;9.016;2022-09-12T00:16:05;13.40;99.90
3406;DHT22;10008;48.682;9.016;2022-09-12T00:18:31;13.10;99.90
3406;DHT22;10008;48.682;9.016;2022-09-12T00:21:02;13.00;99.90
3406;DHT22;10008;48.682;9.016;2022-09-12T00:23:30;13.10;99.90
3406;DHT22;10008;48.682;9.016;2022-09-12T00:25:55;13.10;99.90
3406;DHT22;10008;48.682;9.016;2022-09-12T00:28:21;13.10;99.90
3406;DHT22;10008;48.682;9.016;2022-09-12T00:30:47;13.10;99.90
3406;DHT22;10008;48.682;9.016;2022-09-12T00:33:15;12.90;99.90
3406;DHT22;10008;48.682;9.016;2022-09-12T00:35:47;12.90;99.90
3406;DHT22;10008;48.682;9.016;2022-09-12T00:38:14;13.00;99.90
3406;DHT22;10008;48.682;9.016;2022-09-12T00:40:41;13.10;99.90
3406;DHT22;10008;48.682;9.016;2022-09-12T00:43:44;13.20;99.90
3406;DHT22;10008;48.682;9.016;2022-09-12T00:46:25;13.30;99.90
3406;DHT22;10008;48.682;9.016;2022-09-12T00:49:14;13.20;99.90
3406;DHT22;10008;48.682;9.016;2022-09-12T00:51:47;13.20;99.90
3406;DHT22;10008;48.682;9.016;2022-09-12T00:54:18;12.30;99.90
3406;DHT22;10008;48.682;9.016;2022-09-12T00:56:46;13.10;99.90
3406;DHT22;10008;48.682;9.016;2022-09-12T00:59:19;13.10;99.90
3406;DHT22;10008;48.682;9.016;2022-09-12T01:01:49;13.00;99.90
3406;DHT22;10008;48.682;9.016;2022-09-12T01:04:17;12.80;99.90
3406;DHT22;10008;48.682;9.016;2022-09-12T01:06:44;13.90;99.90
3406;DHT22;10008;48.682;9.016;2022-09-12T01:09:15;12.80;99.90
3406;DHT22;10008;48.682;9.016;2022-09-12T01:11:41;12.90;99.90
3406;DHT22;10008;48.682;9.016;2022-09-12T01:14:11;13.00;99.90
3406;DHT22;10008;48.682;9.016;2022-09-12T01:16:37;13.10;99.90
3406;DHT22;10008;48.682;9.016;2022-09-12T01:24:50;13.00;99.90
3406;DHT22;10008;48.682;9.016;2022-09-12T01:35:34;12.70;99.90
3406;DHT22;10008;48.682;9.016;2022-09-12T01:40:42;12.60;99.90
3406;DHT22;10008;48.682;9.016;2022-09-12T01:46:23;12.60;99.90
3406;DHT22;10008;48.682;9.016;2022-09-12T01:49:11;12.50;99.90
3406;DHT22;10008;48.682;9.016;2022-09-12T01:52:14;12.50;99.90
3406;DHT22;10008;48.682;9.016;2022-09-12T01:57:28;12.50;99.90
3406;DHT22;10008;48.682;9.016;2022-09-12T02:00:00;12.60;99.90
3406;DHT22;10008;48.682;9.016;2022-09-12T02:06:35;12.60;99.90
3406;DHT22;10008;48.682;9.016;2022-09-12T02:08:39;12.70;99.90
3406;DHT22;10008;48.682;9.016;2022-09-12T02:11:09;12.70;99.90
3406;DHT22;10008;48.682;9.016;2022-09-12T02:13:52;12.70;99.90
3406;DHT22;10008;48.682;9.016;2022-09-12T02:16:41;12.70;99.90
3406;DHT22;10008;48.682;9.016;2022-09-12T02:19:17;12.70;99.90
3406;DHT22;10008;48.682;9.016;2022-09-12T02:21:49;12.50;99.90
3406;DHT22;10008;48.682;9.016;2022-09-12T02:24:16;12.40;99.90
3406;DHT22;10008;48.682;9.016;2022-09-12T02:26:48;12.30;99.90
3406;DHT22;10008;48.682;9.016;2022-09-12T02:29:15;12.20;99.90
3406;DHT22;10008;48.682;9.016;2022-09-12T02:31:47;12.20;99.90
3406;DHT22;10008;48.682;9.016;2022-09-12T02:34:40;12.30;99.90
3406;DHT22;10008;48.682;9.016;2022-09-12T02:37:43;12.20;99.90
3406;DHT22;10008;48.682;9.016;2022-09-12T02:40:11;12.00;99.90
3406;DHT22;10008;48.682;9.016;2022-09-12T02:42:37;12.00;99.90
3406;DHT22;10008;48.682;9.016;2022-09-12T02:45:03;12.10;99.90
3406;DHT22;10008;48.682;9.016;2022-09-12T02:47:48;12.30;99.90
3406;DHT22;10008;48.682;9.016;2022-09-12T02:50:15;12.30;99.90
3406;DHT22;10008;48.682;9.016;2022-09-12T02:52:41;12.20;99.90
3406;DHT22;10008;48.682;9.016;2022-09-12T02:55:07;12.20;99.90
3406;DHT22;10008;48.682;9.016;2022-09-12T02:57:36;12.10;99.90
3406;DHT22;10008;48.682;9.016;2022-09-12T03:00:02;12.00;99.90
3406;DHT22;10008;48.682;9.016;2022-09-12T03:05:20;11.90;99.90
3406;DHT22;10008;48.682;9.016;2022-09-12T03:10:58;12.10;99.90
3406;DHT22;10008;48.682;9.016;2022-09-12T03:13:56;12.10;99.90
3406;DHT22;10008;48.682;9.016;2022-09-12T03:19:02;12.00;99.90
3406;DHT22;10008;48.682;9.016;2022-09-12T03:24:34;12.10;99.90
3406;DHT22;10008;48.682;9.016;2022-09-12T03:27:15;12.00;99.90
3406;DHT22;10008;48.682;9.016;2022-09-12T03:29:44;12.00;99.90
3406;DHT22;10008;48.682;9.016;2022-09-12T03:32:11;11.90;99.90
3406;DHT22;10008;48.682;9.016;2022-09-12T03:34:37;11.80;99.90
3406;DHT22;10008;48.682;9.016;2022-09-12T03:37:04;11.70;99.90
3406;DHT22;10008;48.682;9.016;2022-09-12T03:39:29;11.60;99.90
3406;DHT22;10008;48.682;9.016;2022-09-12T03:41:56;11.70;99.90
3406;DHT22;10008;48.682;9.016;2022-09-12T03:44:22;11.60;99.90
3406;DHT22;10008;48.682;9.016;2022-09-12T03:46:49;11.60;99.90
3406;DHT22;10008;48.682;9.016;2022-09-12T03:49:14;11.80;99.90
3406;DHT22;10008;48.682;9.016;2022-09-12T03:51:40;11.80;99.90
3406;DHT22;10008;48.682;9.016;2022-09-12T03:54:07;11.90;99.90
3406;DHT22;10008;48.682;9.016;2022-09-12T03:56:33;11.80;99.90
3406;DHT22;10008;48.682;9.016;2022-09-12T03:59:00;11.80;99.90
3406;DHT22;10008;48.682;9.016;2022-09-12T04:01:26;11.60;99.90
3406;DHT22;10008;48.682;9.016;2022-09-12T04:03:51;11.50;99.90
3406;DHT22;10008;48.682;9.016;2022-09-12T04:06:19;11.40;99.90
3406;DHT22;10008;48.682;9.016;2022-09-12T04:08:50;11.50;99.90
3406;DHT22;10008;48.682;9.016;2022-09-12T04:11:16;11.50;99.90
3406;DHT22;10008;48.682;9.016;2022-09-12T04:13:44;11.40;99.90
3406;DHT22;10008;48.682;9.016;2022-09-12T04:16:11;11.50;99.90
3406;DHT22;10008;48.682;9.016;2022-09-12T04:18:38;11.60;99.90
3406;DHT22;10008;48.682;9.016;2022-09-12T04:21:06;11.70;99.90
3406;DHT22;10008;48.682;9.016;2022-09-12T04:23:32;11.80;99.90
3406;DHT22;10008;48.682;9.016;2022-09-12T04:26:00;11.80;99.90
3406;DHT22;10008;48.682;9.016;2022-09-12T04:28:27;11.80;99.90
3406;DHT22;10008;48.682;9.016;2022-09-12T04:31:01;11.80;99.90
3406;DHT22;10008;48.682;9.016;2022-09-12T04:33:27;11.70;99.90
3406;DHT22;10008;48.682;9.016;2022-09-12T04:35:53;11.80;99.90
3406;DHT22;10008;48.682;9.016;2022-09-12T04:38:19;11.70;99.90
3406;DHT22;10008;48.682;9.016;2022-09-12T04:40:44;11.80;99.90
3406;DHT22;10008;48.682;9.016;2022-09-12T04:43:10;11.70;99.90
3406;DHT22;10008;48.682;9.016;2022-09-12T04:45:36;11.60;99.90
3406;DHT22;10008;48.682;9.016;2022-09-12T04:48:02;11.70;99.90
3406;DHT22;10008;48.682;9.016;2022-09-12T04:50:27;11.60;99.90
3406;DHT22;10008;48.682;9.016;2022-09-12T04:52:53;11.60;99.90
3406;DHT22;10008;48.682;9.016;2022-09-12T04:55:20;11.60;99.90
3406;DHT22;10008;48.682;9.016;2022-09-12T04:57:47;11.50;99.90
3406;DHT22;10008;48.682;9.016;2022-09-12T05:00:13;11.40;99.90
3406;DHT22;10008;48.682;9.016;2022-09-12T05:02:42;11.50;99.90
3406;DHT22;10008;48.682;9.016;2022-09-12T05:05:08;11.60;99.90
3406;DHT22;10008;48.682;9.016;2022-09-12T05:07:35;11.70;99.90
3406;DHT22;10008;48.682;9.016;2022-09-12T05:10:01;11.70;99.90
3406;DHT22;10008;48.682;9.016;2022-09-12T05:12:29;11.40;99.90
3406;DHT22;10008;48.682;9.016;2022-09-12T05:14:56;11.30;99.90
3406;DHT22;10008;48.682;9.016;2022-09-12T05:17:22;11.20;99.90
3406;DHT22;10008;48.682;9.016;2022-09-12T05:19:47;11.20;99.90
3406;DHT22;10008;48.682;9.016;2022-09-12T05:22:13;11.30;99.90
3406;DHT22;10008;48.682;9.016;2022-09-12T05:24:39;11.30;99.90
3406;DHT22;10008;48.682;9.016;2022-09-12T05:27:08;11.30;99.90
3406;DHT22;10008;48.682;9.016;2022-09-12T05:29:34;11.30;99.90
3406;DHT22;10008;48.682;9.016;2022-09-12T05:32:01;11.20;99.90
3406;DHT22;10008;48.682;9.016;2022-09-12T05:34:26;11.50;99.90
3406;DHT22;10008;48.682;9.016;2022-09-12T05:36:52;11.90;99.90
3406;DHT22;10008;48.682;9.016;2022-09-12T05:39:18;12.40;99.90
3406;DHT22;10008;48.682;9.016;2022-09-12T05:41:44;12.80;99.90
3406;DHT22;10008;48.682;9.016;2022-09-12T05:44:11;13.20;99.90
3406;DHT22;10008;48.682;9.016;2022-09-12T05:46:43;13.50;99.90
3406;DHT22;10008;48.682;9.016;2022-09-12T05:49:12;13.80;99.90
3406;DHT22;10008;48.682;9.016;2022-09-12T05:51:40;14.00;99.90
3406;DHT22;10008;48.682;9.016;2022-09-12T05:54:08;14.40;99.90
3406;DHT22;10008;48.682;9.016;2022-09-12T05:56:37;14.70;99.90
3406;DHT22;10008;48.682;9.016;2022-09-12T05:59:13;15.00;99.90
3406;DHT22;10008;48.682;9.016;2022-09-12T06:01:40;15.10;99.90
3406;DHT22;10008;48.682;9.016;2022-09-12T06:04:06;15.60;99.90
3406;DHT22;10008;48.682;9.016;2022-09-12T06:06:38;16.00;99.90
3406;DHT22;10008;48.682;9.016;2022-09-12T06:09:06;16.10;99.90
3406;DHT22;10008;48.682;9.016;2022-09-12T06:11:33;16.50;99.90
3406;DHT22;10008;48.682;9.016;2022-09-12T06:14:00;16.90;99.90
3406;DHT22;10008;48.682;9.016;2022-09-12T06:16:27;17.20;99.90
3406;DHT22;10008;48.682;9.016;2022-09-12T06:19:17;17.50;99.90
3406;DHT22;10008;48.682;9.016;2022-09-12T06:21:41;17.70;99.90
3406;DHT22;10008;48.682;9.016;2022-09-12T06:24:07;18.10;99.90
3406;DHT22;10008;48.682;9.016;2022-09-12T06:26:33;18.30;99.90
3406;DHT22;10008;48.682;9.016;2022-09-12T06:28:59;18.30;99.90
3406;DHT22;10008;48.682;9.016;2022-09-12T06:31:28;18.10;99.90
3406;DHT22;10008;48.682;9.016;2022-09-12T06:33:55;18.10;99.90
3406;DHT22;10008;48.682;9.016;2022-09-12T06:36:27;18.10;99.90
3406;DHT22;10008;48.682;9.016;2022-09-12T06:39:02;18.60;99.90
3406;DHT22;10008;48.682;9.016;2022-09-12T06:41:29;18.80;99.90
3406;DHT22;10008;48.682;9.016;2022-09-12T06:43:56;18.90;99.90
3406;DHT22;10008;48.682;9.016;2022-09-12T06:46:23;19.30;99.90
3406;DHT22;10008;48.682;9.016;2022-09-12T06:48:48;19.70;99.90
3406;DHT22;10008;48.682;9.016;2022-09-12T06:51:16;20.00;99.90
3406;DHT22;10008;48.682;9.016;2022-09-12T06:53:44;20.00;99.90
3406;DHT22;10008;48.682;9.016;2022-09-12T06:58:38;19.70;99.90
3406;DHT22;10008;48.682;9.016;2022-09-12T07:01:10;19.90;99.90
3406;DHT22;10008;48.682;9.016;2022-09-12T07:03:36;20.20;99.90
3406;DHT22;10008;48.682;9.016;2022-09-12T07:06:13;20.40;99.90
3406;DHT22;10008;48.682;9.016;2022-09-12T07:08:40;20.50;99.90
3406;DHT22;10008;48.682;9.016;2022-09-12T07:11:17;20.50;99.90
3406;DHT22;10008;48.682;9.016;2022-09-12T07:13:45;20.00;99.90
3406;DHT22;10008;48.682;9.016;2022-09-12T07:16:11;20.30;99.90
3406;DHT22;10008;48.682;9.016;2022-09-12T07:18:38;20.70;99.90
3406;DHT22;10008;48.682;9.016;2022-09-12T07:21:06;20.70;99.90
3406;DHT22;10008;48.682;9.016;2022-09-12T07:23:32;21.40;99.90
3406;DHT22;10008;48.682;9.016;2022-09-12T07:25:59;21.70;99.90
3406;DHT22;10008;48.682;9.016;2022-09-12T07:28:28;22.10;99.90
3406;DHT22;10008;48.682;9.016;2022-09-12T07:30:54;22.00;99.90
3406;DHT22;10008;48.682;9.016;2022-09-12T07:33:27;21.90;99.90
3406;DHT22;10008;48.682;9.016;2022-09-12T07:35:53;22.10;99.90
3406;DHT22;10008;48.682;9.016;2022-09-12T07:38:20;22.20;99.90
3406;DHT22;10008;48.682;9.016;2022-09-12T07:40:45;22.00;99.90
3406;DHT22;10008;48.682;9.016;2022-09-12T07:43:12;22.30;99.90
3406;DHT22;10008;48.682;9.016;2022-09-12T07:45:38;22.30;99.90
3406;DHT22;10008;48.682;9.016;2022-09-12T07:48:06;22.20;99.60
3406;DHT22;10008;48.682;9.016;2022-09-12T07:50:32;21.70;99.80
3406;DHT22;10008;48.682;9.016;2022-09-12T07:52:58;21.70;99.90
3406;DHT22;10008;48.682;9.016;2022-09-12T07:55:24;21.70;99.90
3406;DHT22;10008;48.682;9.016;2022-09-12T07:57:51;21.80;99.90
3406;DHT22;10008;48.682;9.016;2022-09-12T08:00:17;22.00;99.40
3406;DHT22;10008;48.682;9.016;2022-09-12T08:02:43;22.10;99.30
3406;DHT22;10008;48.682;9.016;2022-09-12T08:05:10;22.20;98.90
3406;DHT22;10008;48.682;9.016;2022-09-12T08:07:35;22.10;98.80
3406;DHT22;10008;48.682;9.016;2022-09-12T08:10:01;22.40;98.50
3406;DHT22;10008;48.682;9.016;2022-09-12T08:12:28;22.40;98.90
3406;DHT22;10008;48.682;9.016;2022-09-12T08:14:54;22.50;97.80
3406;DHT22;10008;48.682;9.016;2022-09-12T08:17:20;22.30;98.60
3406;DHT22;10008;48.682;9.016;2022-09-12T08:19:45;22.30;97.60
3406;DHT22;10008;48.682;9.016;2022-09-12T08:22:12;22.30;98.00
3406;DHT22;10008;48.682;9.016;2022-09-12T08:24:38;22.20;97.10
3406;DHT22;10008;48.682;9.016;2022-09-12T08:27:05;22.20;97.60
3406;DHT22;10008;48.682;9.016;2022-09-12T08:29:31;22.40;98.30
3406;DHT22;10008;48.682;9.016;2022-09-12T08:31:57;22.50;97.10
3406;DHT22;10008;48.682;9.016;2022-09-12T08:34:23;22.80;96.90
3406;DHT22;10008;48.682;9.016;2022-09-12T08:36:49;22.90;96.80
3406;DHT22;10008;48.682;9.016;2022-09-12T08:39:15;22.90;96.80
3406;DHT22;10008;48.682;9.016;2022-09-12T08:41:46;23.10;96.60
3406;DHT22;10008;48.682;9.016;2022-09-12T08:49:34;23.20;95.70
3406;DHT22;10008;48.682;9.016;2022-09-12T08:52:26;23.10;96.60
3406;DHT22;10008;48.682;9.016;2022-09-12T08:54:54;23.30;96.20
3406;DHT22;10008;48.682;9.016;2022-09-12T08:57:22;23.30;96.50
3406;DHT22;10008;48.682;9.016;2022-09-12T08:59:48;23.60;96.00
3406;DHT22;10008;48.682;9.016;2022-09-12T09:05:48;23.70;96.00
3406;DHT22;10008;48.682;9.016;2022-09-12T09:09:08;23.70;95.00
3406;DHT22;10008;48.682;9.016;2022-09-12T09:14:27;23.80;93.70
3406;DHT22;10008;48.682;9.016;2022-09-12T09:17:19;23.90;93.60
3406;DHT22;10008;48.682;9.016;2022-09-12T09:22:47;23.90;93.50
3406;DHT22;10008;48.682;9.016;2022-09-12T09:25:35;23.70;93.10
3406;DHT22;10008;48.682;9.016;2022-09-12T09:28:21;23.50;93.30
3406;DHT22;10008;48.682;9.016;2022-09-12T09:30:48;22.80;93.60
3406;DHT22;10008;48.682;9.016;2022-09-12T09:33:24;22.50;94.60
3406;DHT22;10008;48.682;9.016;2022-09-12T09:38:55;22.10;96.00
3406;DHT22;10008;48.682;9.016;2022-09-12T09:41:27;22.40;95.20
3406;DHT22;10008;48.682;9.016;2022-09-12T09:43:56;22.30;94.90
3406;DHT22;10008;48.682;9.016;2022-09-12T09:46:22;22.30;95.70
3406;DHT22;10008;48.682;9.016;2022-09-12T09:48:48;22.50;97.00
3406;DHT22;10008;48.682;9.016;2022-09-12T09:51:20;22.60;94.60
3406;DHT22;10008;48.682;9.016;2022-09-12T09:53:55;22.70;94.70
3406;DHT22;10008;48.682;9.016;2022-09-12T09:56:39;23.10;94.50
3406;DHT22;10008;48.682;9.016;2022-09-12T09:59:17;23.30;93.80
3406;DHT22;10008;48.682;9.016;2022-09-12T10:01:44;23.30;93.70
3406;DHT22;10008;48.682;9.016;2022-09-12T10:04:24;23.30;93.70
3406;DHT22;10008;48.682;9.016;2022-09-12T10:06:55;23.50;90.90
3406;DHT22;10008;48.682;9.016;2022-09-12T10:09:32;23.70;91.00
3406;DHT22;10008;48.682;9.016;2022-09-12T10:12:00;23.90;90.10
3406;DHT22;10008;48.682;9.016;2022-09-12T10:17:01;24.10;88.60
3406;DHT22;10008;48.682;9.016;2022-09-12T10:19:37;24.30;89.40
3406;DHT22;10008;48.682;9.016;2022-09-12T10:22:05;24.40;88.90
3406;DHT22;10008;48.682;9.016;2022-09-12T10:24:40;24.50;90.00
3406;DHT22;10008;48.682;9.016;2022-09-12T10:27:18;24.40;87.20
3406;DHT22;10008;48.682;9.016;2022-09-12T10:32:29;24.20;89.10
3406;DHT22;10008;48.682;9.016;2022-09-12T10:35:03;24.20;87.50
3406;DHT22;10008;48.682;9.016;2022-09-12T10:37:34;24.40;87.50
3406;DHT22;10008;48.682;9.016;2022-09-12T10:40:02;24.60;84.60
3406;DHT22;10008;48.682;9.016;2022-09-12T10:42:47;24.70;84.60
3406;DHT22;10008;48.682;9.016;2022-09-12T10:45:25;24.90;86.10
3406;DHT22;10008;48.682;9.016;2022-09-12T10:47:52;24.90;85.70
3406;DHT22;10008;48.682;9.016;2022-09-12T10:50:40;24.80;84.10
3406;DHT22;10008;48.682;9.016;2022-09-12T10:53:38;24.70;83.20
3406;DHT22;10008;48.682;9.016;2022-09-12T10:56:13;24.70;81.90
3406;DHT22;10008;48.682;9.016;2022-09-12T11:01:50;25.00;79.30
3406;DHT22;10008;48.682;9.016;2022-09-12T11:04:42;25.20;78.50
3406;DHT22;10008;48.682;9.016;2022-09-12T11:07:34;25.20;79.40
3406;DHT22;10008;48.682;9.016;2022-09-12T11:13:05;25.20;79.40
3406;DHT22;10008;48.682;9.016;2022-09-12T11:15:55;25.30;80.40
3406;DHT22;10008;48.682;9.016;2022-09-12T11:26:54;25.00;78.70
3406;DHT22;10008;48.682;9.016;2022-09-12T11:40:08;25.10;81.70
3406;DHT22;10008;48.682;9.016;2022-09-12T11:42:42;25.10;79.00
3406;DHT22;10008;48.682;9.016;2022-09-12T11:45:47;25.10;77.50
3406;DHT22;10008;48.682;9.016;2022-09-12T11:48:43;25.20;78.60
3406;DHT22;10008;48.682;9.016;2022-09-12T11:51:27;25.40;77.00
3406;DHT22;10008;48.682;9.016;2022-09-12T11:57:25;25.30;77.10
3406;DHT22;10008;48.682;9.016;2022-09-12T12:00:15;25.50;77.00
3406;DHT22;10008;48.682;9.016;2022-09-12T12:03:08;25.70;77.50
3406;DHT22;10008;48.682;9.016;2022-09-12T12:05:50;25.80;76.20
3406;DHT22;10008;48.682;9.016;2022-09-12T12:08:22;25.80;75.50
3406;DHT22;10008;48.682;9.016;2022-09-12T12:10:52;25.70;74.20
3406;DHT22;10008;48.682;9.016;2022-09-12T12:13:47;25.70;73.70
3406;DHT22;10008;48.682;9.016;2022-09-12T12:21:43;25.90;73.50
3406;DHT22;10008;48.682;9.016;2022-09-12T12:24:13;25.90;73.10
3406;DHT22;10008;48.682;9.016;2022-09-12T12:29:09;26.30;74.00
3406;DHT22;10008;48.682;9.016;2022-09-12T12:34:36;26.40;73.80
3406;DHT22;10008;48.682;9.016;2022-09-12T12:47:27;26.70;70.60
3406;DHT22;10008;48.682;9.016;2022-09-12T12:53:21;26.90;68.70
3406;DHT22;10008;48.682;9.016;2022-09-12T12:55:51;26.70;67.60
3406;DHT22;10008;48.682;9.016;2022-09-12T13:01:15;26.70;68.40
3406;DHT22;10008;48.682;9.016;2022-09-12T13:03:55;26.80;69.50
3406;DHT22;10008;48.682;9.016;2022-09-12T13:06:35;26.90;67.30
3406;DHT22;10008;48.682;9.016;2022-09-12T13:09:18;26.80;65.20
3406;DHT22;10008;48.682;9.016;2022-09-12T13:11:45;27.10;67.00
3406;DHT22;10008;48.682;9.016;2022-09-12T13:14:33;27.20;65.70
3406;DHT22;10008;48.682;9.016;2022-09-12T13:17:00;27.20;65.20
3406;DHT22;10008;48.682;9.016;2022-09-12T13:19:30;27.10;65.50
3406;DHT22;10008;48.682;9.016;2022-09-12T13:22:05;27.30;66.90
3406;DHT22;10008;48.682;9.016;2022-09-12T13:24:32;27.40;65.70
3406;DHT22;10008;48.682;9.016;2022-09-12T13:26:58;27.40;64.30
3406;DHT22;10008;48.682;9.016;2022-09-12T13:29:26;27.30;64.50
3406;DHT22;10008;48.682;9.016;2022-09-12T13:34:28;27.90;63.60
3406;DHT22;10008;48.682;9.016;2022-09-12T13:42:41;27.40;65.20
3406;DHT22;10008;48.682;9.016;2022-09-12T13:45:16;27.60;64.40
3406;DHT22;10008;48.682;9.016;2022-09-12T13:47:46;27.80;65.60
3406;DHT22;10008;48.682;9.016;2022-09-12T13:50:25;27.80;64.80
3406;DHT22;10008;48.682;9.016;2022-09-12T13:53:35;27.80;64.60
3406;DHT22;10008;48.682;9.016;2022-09-12T13:55:46;27.80;63.60
3406;DHT22;10008;48.682;9.016;2022-09-12T13:58:30;27.70;63.50
3406;DHT22;10008;48.682;9.016;2022-09-12T14:03:37;27.80;63.50
3406;DHT22;10008;48.682;9.016;2022-09-12T14:06:22;27.80;65.50
3406;DHT22;10008;48.682;9.016;2022-09-12T14:08:52;28.00;63.40
3406;DHT22;10008;48.682;9.016;2022-09-12T14:11:26;27.90;65.40
3406;DHT22;10008;48.682;9.016;2022-09-12T14:13:53;27.90;65.20
3406;DHT22;10008;48.682;9.016;2022-09-12T14:16:21;27.90;62.90
3406;DHT22;10008;48.682;9.016;2022-09-12T14:18:49;27.70;63.20
3406;DHT22;10008;48.682;9.016;2022-09-12T14:21:32;27.80;62.90
3406;DHT22;10008;48.682;9.016;2022-09-12T14:23:59;27.80;62.60
3406;DHT22;10008;48.682;9.016;2022-09-12T14:26:27;27.70;62.00
3406;DHT22;10008;48.682;9.016;2022-09-12T14:28:59;27.70;62.40
3406;DHT22;10008;48.682;9.016;2022-09-12T14:31:35;27.50;65.10
3406;DHT22;10008;48.682;9.016;2022-09-12T14:34:10;27.80;63.50
3406;DHT22;10008;48.682;9.016;2022-09-12T14:36:42;27.70;63.00
3406;DHT22;10008;48.682;9.016;2022-09-12T14:41:47;27.40;63.90
3406;DHT22;10008;48.682;9.016;2022-09-12T14:44:23;27.70;67.70
3406;DHT22;10008;48.682;9.016;2022-09-12T14:46:50;27.90;60.90
3406;DHT22;10008;48.682;9.016;2022-09-12T14:49:34;27.70;60.30
3406;DHT22;10008;48.682;9.016;2022-09-12T14:52:04;27.50;61.40
3406;DHT22;10008;48.682;9.016;2022-09-12T15:02:18;27.50;59.90
3406;DHT22;10008;48.682;9.016;2022-09-12T15:04:46;27.70;59.90
3406;DHT22;10008;48.682;9.016;2022-09-12T15:07:33;27.60;60.80
3406;DHT22;10008;48.682;9.016;2022-09-12T15:12:56;27.80;62.50
3406;DHT22;10008;48.682;9.016;2022-09-12T15:15:27;27.50;58.80
3406;DHT22;10008;48.682;9.016;2022-09-12T15:17:53;27.60;61.80
3406;DHT22;10008;48.682;9.016;2022-09-12T15:20:19;27.50;57.90
3406;DHT22;10008;48.682;9.016;2022-09-12T15:22:44;27.20;60.10
3406;DHT22;10008;48.682;9.016;2022-09-12T15:25:11;27.00;63.80
3406;DHT22;10008;48.682;9.016;2022-09-12T15:27:37;26.70;60.30
3406;DHT22;10008;48.682;9.016;2022-09-12T15:30:11;26.70;62.60
3406;DHT22;10008;48.682;9.016;2022-09-12T15:32:39;26.70;59.80
3406;DHT22;10008;48.682;9.016;2022-09-12T15:35:19;26.60;61.20
3406;DHT22;10008;48.682;9.016;2022-09-12T15:37:47;26.70;66.10
3406;DHT22;10008;48.682;9.016;2022-09-12T15:40:13;27.00;62.90
3406;DHT22;10008;48.682;9.016;2022-09-12T15:42:40;27.00;61.30
3406;DHT22;10008;48.682;9.016;2022-09-12T15:45:18;27.20;63.30
3406;DHT22;10008;48.682;9.016;2022-09-12T15:47:45;27.40;63.10
3406;DHT22;10008;48.682;9.016;2022-09-12T15:50:10;27.30;61.40
3406;DHT22;10008;48.682;9.016;2022-09-12T15:52:36;27.00;62.30
3406;DHT22;10008;48.682;9.016;2022-09-12T15:55:03;27.20;64.20
3406;DHT22;10008;48.682;9.016;2022-09-12T15:57:29;27.30;62.70
3406;DHT22;10008;48.682;9.016;2022-09-12T15:59:54;27.10;63.30
3406;DHT22;10008;48.682;9.016;2022-09-12T16:02:20;26.90;62.50
3406;DHT22;10008;48.682;9.016;2022-09-12T16:04:46;26.90;62.80
3406;DHT22;10008;48.682;9.016;2022-09-12T16:07:12;26.50;60.80
3406;DHT22;10008;48.682;9.016;2022-09-12T16:09:38;26.30;62.40
3406;DHT22;10008;48.682;9.016;2022-09-12T16:12:05;26.30;65.10
3406;DHT22;10008;48.682;9.016;2022-09-12T16:14:31;26.30;65.30
3406;DHT22;10008;48.682;9.016;2022-09-12T16:16:56;26.20;66.30
3406;DHT22;10008;48.682;9.016;2022-09-12T16:19:22;26.00;66.00
3406;DHT22;10008;48.682;9.016;2022-09-12T16:21:49;25.80;67.00
3406;DHT22;10008;48.682;9.016;2022-09-12T16:24:15;25.70;69.70
3406;DHT22;10008;48.682;9.016;2022-09-12T16:26:41;25.70;69.40
3406;DHT22;10008;48.682;9.016;2022-09-12T16:29:08;25.70;68.10
3406;DHT22;10008;48.682;9.016;2022-09-12T16:31:35;25.50;68.50
3406;DHT22;10008;48.682;9.016;2022-09-12T16:34:02;25.40;69.40
3406;DHT22;10008;48.682;9.016;2022-09-12T16:36:28;25.10;69.10
3406;DHT22;10008;48.682;9.016;2022-09-12T16:38:54;24.80;70.70
3406;DHT22;10008;48.682;9.016;2022-09-12T16:41:22;24.60;70.50
3406;DHT22;10008;48.682;9.016;2022-09-12T16:43:49;24.40;71.20
3406;DHT22;10008;48.682;9.016;2022-09-12T16:46:18;24.30;73.40
3406;DHT22;10008;48.682;9.016;2022-09-12T16:48:46;24.20;72.10
3406;DHT22;10008;48.682;9.016;2022-09-12T16:51:14;24.10;74.10
3406;DHT22;10008;48.682;9.016;2022-09-12T16:53:40;24.10;72.80
3406;DHT22;10008;48.682;9.016;2022-09-12T16:56:07;24.10;73.70
3406;DHT22;10008;48.682;9.016;2022-09-12T16:58:35;24.00;75.00
3406;DHT22;10008;48.682;9.016;2022-09-12T17:01:03;24.00;73.10
3406;DHT22;10008;48.682;9.016;2022-09-12T17:03:30;23.80;73.00
3406;DHT22;10008;48.682;9.016;2022-09-12T17:05:59;23.60;73.70
3406;DHT22;10008;48.682;9.016;2022-09-12T17:08:29;23.60;74.00
3406;DHT22;10008;48.682;9.016;2022-09-12T17:11:01;23.50;74.50
3406;DHT22;10008;48.682;9.016;2022-09-12T17:13:27;23.40;74.50
3406;DHT22;10008;48.682;9.016;2022-09-12T17:15:53;23.30;75.00
3406;DHT22;10008;48.682;9.016;2022-09-12T17:18:20;23.30;75.60
3406;DHT22;10008;48.682;9.016;2022-09-12T17:20:46;23.20;75.70
3406;DHT22;10008;48.682;9.016;2022-09-12T17:23:12;23.00;76.20
3406;DHT22;10008;48.682;9.016;2022-09-12T17:25:38;23.00;76.60
3406;DHT22;10008;48.682;9.016;2022-09-12T17:28:04;22.90;77.20
3406;DHT22;10008;48.682;9.016;2022-09-12T17:30:34;22.80;77.30
3406;DHT22;10008;48.682;9.016;2022-09-12T17:33:00;22.80;77.80
3406;DHT22;10008;48.682;9.016;2022-09-12T17:35:26;22.70;78.30
3406;DHT22;10008;48.682;9.016;2022-09-12T17:37:52;22.50;78.90
3406;DHT22;10008;48.682;9.016;2022-09-12T17:40:18;22.40;79.60
3406;DHT22;10008;48.682;9.016;2022-09-12T17:42:44;22.40;80.20
3406;DHT22;10008;48.682;9.016;2022-09-12T17:45:10;22.10;83.10
3406;DHT22;10008;48.682;9.016;2022-09-12T17:47:38;22.20;82.10
3406;DHT22;10008;48.682;9.016;2022-09-12T17:50:04;22.10;83.90
3406;DHT22;10008;48.682;9.016;2022-09-12T17:52:29;22.00;83.60
3406;DHT22;10008;48.682;9.016;2022-09-12T17:54:55;22.00;91.90
3406;DHT22;10008;48.682;9.016;2022-09-12T17:57:21;21.90;90.80
3406;DHT22;10008;48.682;9.016;2022-09-12T17:59:47;21.80;87.90
3406;DHT22;10008;48.682;9.016;2022-09-12T18:02:13;21.60;87.40
3406;DHT22;10008;48.682;9.016;2022-09-12T18:04:42;21.20;88.10
3406;DHT22;10008;48.682;9.016;2022-09-12T18:07:15;21.00;88.60
3406;DHT22;10008;48.682;9.016;2022-09-12T18:09:43;20.80;89.60
3406;DHT22;10008;48.682;9.016;2022-09-12T18:12:12;20.70;89.60
3406;DHT22;10008;48.682;9.016;2022-09-12T18:14:39;20.60;90.20
3406;DHT22;10008;48.682;9.016;2022-09-12T18:17:05;20.60;91.50
3406;DHT22;10008;48.682;9.016;2022-09-12T18:19:33;20.60;91.10
3406;DHT22;10008;48.682;9.016;2022-09-12T18:22:00;20.40;90.30
3406;DHT22;10008;48.682;9.016;2022-09-12T18:24:26;20.20;90.60
3406;DHT22;10008;48.682;9.016;2022-09-12T18:26:53;20.10;90.90
3406;DHT22;10008;48.682;9.016;2022-09-12T18:29:21;20.00;91.40